createdAt,value
2023-05-06T00:01:01.450Z,9.80
2023-05-06T00:02:04.520Z,10.33
2023-05-06T00:03:06.348Z,9.40
2023-05-06T00:04:08.222Z,9.60
2023-05-06T00:05:10.023Z,8.30
2023-05-06T00:06:11.695Z,9.10
2023-05-06T00:07:13.247Z,10.10
2023-05-06T00:08:14.715Z,10.33
2023-05-06T00:09:16.394Z,10.70
2023-05-06T00:10:18.340Z,10.07
2023-05-06T00:11:21.080Z,10.53
2023-05-06T00:12:22.655Z,10.03
2023-05-06T00:13:24.194Z,10.63
2023-05-06T00:14:25.826Z,10.00
2023-05-06T00:15:28.707Z,10.63
2023-05-06T00:16:32.249Z,10.40
2023-05-06T00:17:33.951Z,10.23
2023-05-06T00:18:35.740Z,8.93
2023-05-06T00:19:38.663Z,10.07
2023-05-06T00:20:40.435Z,9.53
2023-05-06T00:21:41.952Z,8.43
2023-05-06T00:22:43.413Z,10.23
2023-05-06T00:23:44.878Z,9.53
2023-05-06T00:24:46.516Z,10.47
2023-05-06T00:25:48.032Z,9.37
2023-05-06T00:26:49.648Z,9.53
2023-05-06T00:27:51.267Z,10.03
2023-05-06T00:28:52.787Z,9.33
2023-05-06T00:29:54.206Z,10.20
2023-05-06T00:30:56.352Z,9.30
2023-05-06T00:31:57.958Z,8.53
2023-05-06T00:32:59.516Z,9.77
2023-05-06T00:34:01.049Z,10.70
2023-05-06T00:35:03.526Z,9.97
2023-05-06T00:36:05.219Z,9.90
2023-05-06T00:37:06.926Z,9.93
2023-05-06T00:38:09.696Z,9.70
2023-05-06T00:39:11.200Z,9.53
2023-05-06T00:40:13.035Z,9.40
2023-05-06T00:41:14.462Z,9.50
2023-05-06T00:42:15.950Z,9.53
2023-05-06T00:43:18.244Z,9.97
2023-05-06T00:44:20.339Z,10.50
2023-05-06T00:45:21.923Z,9.67
2023-05-06T00:46:23.372Z,9.83
2023-05-06T00:47:28.327Z,9.83
2023-05-06T00:48:30.476Z,8.10
2023-05-06T00:49:32.440Z,7.90
2023-05-06T00:50:34.642Z,9.47
2023-05-06T00:51:36.199Z,8.57
2023-05-06T00:52:37.855Z,8.93
2023-05-06T00:53:39.913Z,8.40
2023-05-06T00:54:42.580Z,8.70
2023-05-06T00:55:44.152Z,9.07
2023-05-06T00:56:45.834Z,8.20
2023-05-06T00:57:49.479Z,8.77
2023-05-06T00:58:51.530Z,8.47
2023-05-06T00:59:52.928Z,9.43
2023-05-06T01:00:55.383Z,8.80
2023-05-06T01:01:58.106Z,8.70
2023-05-06T01:02:59.685Z,8.87
2023-05-06T01:04:01.526Z,9.13
2023-05-06T01:05:04.186Z,9.10
2023-05-06T01:06:17.276Z,8.50
2023-05-06T01:07:37.940Z,8.80
2023-05-06T01:08:51.717Z,9.40
2023-05-06T01:10:07.980Z,9.03
2023-05-06T01:11:15.798Z,9.90
2023-05-06T01:12:22.976Z,9.90
2023-05-06T01:13:28.501Z,9.97
2023-05-06T01:14:39.134Z,10.30
2023-05-06T01:15:44.723Z,9.27
2023-05-06T01:16:48.034Z,9.53
2023-05-06T01:17:51.331Z,10.00
2023-05-06T01:18:54.006Z,9.83
2023-05-06T01:19:57.468Z,11.27
2023-05-06T01:20:59.336Z,10.63
2023-05-06T01:22:02.319Z,11.43
2023-05-06T01:23:13.343Z,9.13
2023-05-06T01:24:14.894Z,9.83
2023-05-06T01:25:23.047Z,10.17
2023-05-06T01:26:24.722Z,11.20
2023-05-06T01:27:26.753Z,10.60
2023-05-06T01:28:29.134Z,10.17
2023-05-06T01:29:31.146Z,9.00
2023-05-06T01:30:36.321Z,11.10
2023-05-06T01:31:50.739Z,11.00
2023-05-06T01:33:08.099Z,9.80
2023-05-06T01:34:11.924Z,9.00
2023-05-06T01:35:13.405Z,10.47
2023-05-06T01:36:33.767Z,10.23
2023-05-06T01:37:42.366Z,10.23
2023-05-06T01:39:22.830Z,10.50
2023-05-06T01:40:26.230Z,10.40
2023-05-06T01:41:27.952Z,10.20
2023-05-06T01:42:30.205Z,11.33
2023-05-06T01:43:34.852Z,9.77
2023-05-06T01:44:37.452Z,11.10
2023-05-06T01:45:39.491Z,11.70
2023-05-06T01:46:42.354Z,9.70
2023-05-06T01:47:45.722Z,9.93
2023-05-06T01:48:49.162Z,10.77
2023-05-06T01:49:51.631Z,11.10
2023-05-06T01:50:53.229Z,10.13
2023-05-06T01:51:55.021Z,10.37
2023-05-06T01:53:02.882Z,11.20
2023-05-06T01:54:05.209Z,11.43
2023-05-06T01:55:07.204Z,9.40
2023-05-06T01:56:09.103Z,9.73
2023-05-06T01:57:10.898Z,10.67
2023-05-06T01:58:12.586Z,10.00
2023-05-06T01:59:14.308Z,9.20
2023-05-06T02:00:16.027Z,8.93
2023-05-06T02:01:17.765Z,9.93
2023-05-06T02:02:19.542Z,9.50
2023-05-06T02:03:21.509Z,11.30
2023-05-06T02:04:23.394Z,9.87
2023-05-06T02:05:25.226Z,11.60
2023-05-06T02:06:27.150Z,11.37
2023-05-06T02:07:28.639Z,10.60
2023-05-06T02:08:30.287Z,9.90
2023-05-06T02:09:31.732Z,9.30
2023-05-06T02:10:33.304Z,10.40
2023-05-06T02:11:34.769Z,10.47
2023-05-06T02:12:36.404Z,9.20
2023-05-06T02:13:37.917Z,10.43
2023-05-06T02:14:39.336Z,9.63
2023-05-06T02:15:40.893Z,10.50
2023-05-06T02:16:42.613Z,11.47
2023-05-06T02:17:44.471Z,9.77
2023-05-06T02:18:46.058Z,10.70
2023-05-06T02:19:47.568Z,10.00
2023-05-06T02:20:49.202Z,11.00
2023-05-06T02:21:50.733Z,12.30
2023-05-06T02:22:52.271Z,10.80
2023-05-06T02:23:54.415Z,9.40
2023-05-06T02:24:55.882Z,9.10
2023-05-06T02:25:58.705Z,10.73
2023-05-06T02:27:00.271Z,9.20
2023-05-06T02:28:01.736Z,11.43
2023-05-06T02:29:03.310Z,11.47
2023-05-06T02:30:05.286Z,10.13
2023-05-06T02:31:06.828Z,11.10
2023-05-06T02:32:08.446Z,11.37
2023-05-06T02:33:10.032Z,11.60
2023-05-06T02:34:11.519Z,11.27
2023-05-06T02:35:12.960Z,12.27
2023-05-06T02:36:14.578Z,11.47
2023-05-06T02:37:16.160Z,11.60
2023-05-06T02:38:17.995Z,12.87
2023-05-06T02:39:19.564Z,11.93
2023-05-06T02:40:21.868Z,13.20
2023-05-06T02:41:25.126Z,11.97
2023-05-06T02:42:30.828Z,11.90
2023-05-06T02:43:33.126Z,11.10
2023-05-06T02:44:34.799Z,11.00
2023-05-06T02:45:37.358Z,11.93
2023-05-06T02:46:39.081Z,10.60
2023-05-06T02:47:40.752Z,12.27
2023-05-06T02:48:42.245Z,13.63
2023-05-06T02:49:43.886Z,11.80
2023-05-06T02:50:45.443Z,12.40
2023-05-06T02:51:47.155Z,12.87
2023-05-06T02:52:48.636Z,12.07
2023-05-06T02:53:50.093Z,10.43
2023-05-06T02:54:51.774Z,12.50
2023-05-06T02:55:53.240Z,12.60
2023-05-06T02:56:54.808Z,11.80
2023-05-06T02:57:56.446Z,12.50
2023-05-06T02:58:58.076Z,12.13
2023-05-06T02:59:59.609Z,12.57
2023-05-06T03:01:01.213Z,12.87
2023-05-06T03:02:03.130Z,12.13
2023-05-06T03:03:05.036Z,14.13
2023-05-06T03:04:07.694Z,15.13
2023-05-06T03:05:10.419Z,14.20
2023-05-06T03:06:12.217Z,14.00
2023-05-06T03:07:13.785Z,13.57
2023-05-06T03:08:15.253Z,12.00
2023-05-06T03:09:17.023Z,13.60
2023-05-06T03:10:18.614Z,11.40
2023-05-06T03:11:22.141Z,13.70
2023-05-06T03:12:23.878Z,13.50
2023-05-06T03:13:25.513Z,12.80
2023-05-06T03:14:26.994Z,10.23
2023-05-06T03:15:28.602Z,13.43
2023-05-06T03:16:30.316Z,12.47
2023-05-06T03:17:32.328Z,13.80
2023-05-06T03:18:33.965Z,14.47
2023-05-06T03:19:35.521Z,13.47
2023-05-06T03:20:37.046Z,14.20
2023-05-06T03:21:38.595Z,13.70
2023-05-06T03:22:42.574Z,14.10
2023-05-06T03:23:44.086Z,14.33
2023-05-06T03:24:45.613Z,14.20
2023-05-06T03:25:47.691Z,14.50
2023-05-06T03:26:49.221Z,14.70
2023-05-06T03:27:50.739Z,16.10
2023-05-06T03:28:52.235Z,14.47
2023-05-06T03:29:53.641Z,15.20
2023-05-06T03:30:55.349Z,15.43
2023-05-06T03:31:57.107Z,15.50
2023-05-06T03:33:00.679Z,16.13
2023-05-06T03:34:02.232Z,16.13
2023-05-06T03:35:04.392Z,16.57
2023-05-06T03:36:06.750Z,14.80
2023-05-06T03:37:09.062Z,15.30
2023-05-06T03:38:11.455Z,15.97
2023-05-06T03:39:13.025Z,14.33
2023-05-06T03:40:14.518Z,15.83
2023-05-06T03:41:16.065Z,15.40
2023-05-06T03:42:17.617Z,14.20
2023-05-06T03:43:19.190Z,16.60
2023-05-06T03:44:21.301Z,14.10
2023-05-06T03:45:23.070Z,15.00
2023-05-06T03:46:27.727Z,14.93
2023-05-06T03:47:29.253Z,14.90
2023-05-06T03:48:31.478Z,14.20
2023-05-06T03:49:33.033Z,13.60
2023-05-06T03:50:34.779Z,12.53
2023-05-06T03:51:36.728Z,14.07
2023-05-06T03:52:38.235Z,14.27
2023-05-06T03:53:39.743Z,14.57
2023-05-06T03:54:41.231Z,14.57
2023-05-06T03:55:43.276Z,14.07
2023-05-06T03:56:44.783Z,12.67
2023-05-06T03:57:46.404Z,13.20
2023-05-06T03:58:47.863Z,12.50
2023-05-06T03:59:49.567Z,12.83
2023-05-06T04:00:51.071Z,13.10
2023-05-06T04:01:52.613Z,13.63
2023-05-06T04:02:54.141Z,12.60
2023-05-06T04:03:55.712Z,13.10
2023-05-06T04:04:57.177Z,14.00
2023-05-06T04:05:58.609Z,14.57
2023-05-06T04:07:00.755Z,14.30
2023-05-06T04:08:02.262Z,15.00
2023-05-06T04:09:06.323Z,15.67
2023-05-06T04:10:09.205Z,15.00
2023-05-06T04:11:10.951Z,15.30
2023-05-06T04:12:12.576Z,14.33
2023-05-06T04:13:14.250Z,15.40
2023-05-06T04:14:15.797Z,13.77
2023-05-06T04:15:17.314Z,15.10
2023-05-06T04:16:18.803Z,14.83
2023-05-06T04:17:20.504Z,14.83
2023-05-06T04:18:22.583Z,14.07
2023-05-06T04:19:24.174Z,13.60
2023-05-06T04:20:25.833Z,15.20
2023-05-06T04:21:27.512Z,15.63
2023-05-06T04:22:29.150Z,16.67
2023-05-06T04:23:30.693Z,16.93
2023-05-06T04:24:32.218Z,18.00
2023-05-06T04:25:35.837Z,19.13
2023-05-06T04:26:37.482Z,18.20
2023-05-06T04:27:38.940Z,20.60
2023-05-06T04:28:40.908Z,22.20
2023-05-06T04:29:42.486Z,23.67
2023-05-06T04:30:45.107Z,23.93
2023-05-06T04:31:47.295Z,24.10
2023-05-06T04:32:49.348Z,22.83
2023-05-06T04:33:53.843Z,23.00
2023-05-06T04:34:56.772Z,23.80
2023-05-06T04:35:59.447Z,21.53
2023-05-06T04:37:01.029Z,22.10
2023-05-06T04:38:02.732Z,22.50
2023-05-06T04:39:06.633Z,23.23
2023-05-06T04:40:09.291Z,24.53
2023-05-06T04:41:11.981Z,23.20
2023-05-06T04:42:14.123Z,21.93
2023-05-06T04:43:16.492Z,23.50
2023-05-06T04:44:19.463Z,22.90
2023-05-06T04:45:22.694Z,22.87
2023-05-06T04:46:24.656Z,23.77
2023-05-06T04:47:26.207Z,25.13
2023-05-06T04:48:27.986Z,23.40
2023-05-06T04:49:30.491Z,22.60
2023-05-06T04:50:32.247Z,22.47
2023-05-06T04:51:33.888Z,21.80
2023-05-06T04:52:36.446Z,22.43
2023-05-06T04:53:38.154Z,21.37
2023-05-06T04:54:40.049Z,18.83
2023-05-06T04:55:41.875Z,18.33
2023-05-06T04:56:43.442Z,20.07
2023-05-06T04:57:45.056Z,18.97
2023-05-06T04:58:46.575Z,21.07
2023-05-06T04:59:48.158Z,17.70
2023-05-06T05:00:49.714Z,19.63
2023-05-06T05:01:51.278Z,20.67
2023-05-06T05:02:53.074Z,22.07
2023-05-06T05:03:54.824Z,17.70
2023-05-06T05:04:56.434Z,18.37
2023-05-06T05:05:57.986Z,18.83
2023-05-06T05:06:59.655Z,18.13
2023-05-06T05:08:01.329Z,17.33
2023-05-06T05:09:02.951Z,18.97
2023-05-06T05:10:08.126Z,20.10
2023-05-06T05:11:10.794Z,17.27
2023-05-06T05:12:13.467Z,17.77
2023-05-06T05:13:15.529Z,18.00
2023-05-06T05:14:17.191Z,16.23
2023-05-06T05:15:18.874Z,15.37
2023-05-06T05:16:20.490Z,13.07
2023-05-06T05:17:22.314Z,14.30
2023-05-06T05:18:25.842Z,14.43
2023-05-06T05:19:27.400Z,12.33
2023-05-06T05:20:29.141Z,11.47
2023-05-06T05:21:30.804Z,11.20
2023-05-06T05:22:32.409Z,12.00
2023-05-06T05:23:34.026Z,10.60
2023-05-06T05:24:35.608Z,11.60
2023-05-06T05:25:37.175Z,10.93
2023-05-06T05:26:38.696Z,9.30
2023-05-06T05:27:42.208Z,10.73
2023-05-06T05:28:44.696Z,9.17
2023-05-06T05:29:46.402Z,9.60
2023-05-06T05:30:48.186Z,9.50
2023-05-06T05:31:50.486Z,9.50
2023-05-06T05:32:52.206Z,9.23
2023-05-06T05:33:53.951Z,11.20
2023-05-06T05:34:55.579Z,10.47
2023-05-06T05:36:00.964Z,10.50
2023-05-06T05:37:02.868Z,9.87
2023-05-06T05:38:04.405Z,8.70
2023-05-06T05:39:05.881Z,9.07
2023-05-06T05:40:07.795Z,9.10
2023-05-06T05:41:09.663Z,8.67
2023-05-06T05:42:11.602Z,8.63
2023-05-06T05:43:13.258Z,8.90
2023-05-06T05:44:15.198Z,8.33
2023-05-06T05:45:17.569Z,8.27
2023-05-06T05:46:19.602Z,7.17
2023-05-06T05:47:21.831Z,8.00
2023-05-06T05:48:24.238Z,7.27
2023-05-06T05:49:25.985Z,7.43
2023-05-06T05:50:27.479Z,7.60
2023-05-06T05:51:29.180Z,7.57
2023-05-06T05:52:31.492Z,7.43
2023-05-06T05:53:33.010Z,7.97
2023-05-06T05:54:34.576Z,6.27
2023-05-06T05:55:36.398Z,6.90
2023-05-06T05:56:38.075Z,5.97
2023-05-06T05:57:39.603Z,6.13
2023-05-06T05:58:41.160Z,6.20
2023-05-06T05:59:42.790Z,6.20
2023-05-06T06:00:44.361Z,6.40
2023-05-06T06:01:46.191Z,6.13
2023-05-06T06:02:47.945Z,6.40
2023-05-06T06:03:50.143Z,5.60
2023-05-06T06:04:52.836Z,5.90
2023-05-06T06:05:55.338Z,5.50
2023-05-06T06:07:01.770Z,5.80
2023-05-06T06:08:04.179Z,4.90
2023-05-06T06:09:05.958Z,5.57
2023-05-06T06:10:08.063Z,4.80
2023-05-06T06:11:09.598Z,4.83
2023-05-06T06:12:11.181Z,5.20
2023-05-06T06:13:13.458Z,4.63
2023-05-06T06:14:15.060Z,3.90
2023-05-06T06:15:16.630Z,3.70
2023-05-06T06:16:18.195Z,4.47
2023-05-06T06:17:19.891Z,4.77
2023-05-06T06:18:21.520Z,4.00
2023-05-06T06:19:23.517Z,4.20
2023-05-06T06:20:25.907Z,4.13
2023-05-06T06:21:27.754Z,4.00
2023-05-06T06:22:29.256Z,4.20
2023-05-06T06:23:30.987Z,3.90
2023-05-06T06:24:35.021Z,4.50
2023-05-06T06:25:36.654Z,3.87
2023-05-06T06:26:38.272Z,3.70
2023-05-06T06:27:40.008Z,3.63
2023-05-06T06:28:42.015Z,3.77
2023-05-06T06:29:43.655Z,4.27
2023-05-06T06:30:45.723Z,3.40
2023-05-06T06:31:47.490Z,3.60
2023-05-06T06:32:52.718Z,3.47
2023-05-06T06:33:54.248Z,3.30
2023-05-06T06:34:55.757Z,4.00
2023-05-06T06:35:57.347Z,3.43
2023-05-06T06:36:59.029Z,3.10
2023-05-06T06:38:00.738Z,3.40
2023-05-06T06:39:02.613Z,3.77
2023-05-06T06:40:04.466Z,3.23
2023-05-06T06:41:06.135Z,3.50
2023-05-06T06:42:07.619Z,3.70
2023-05-06T06:43:09.500Z,3.60
2023-05-06T06:44:11.287Z,2.87
2023-05-06T06:45:14.076Z,3.57
2023-05-06T06:46:15.758Z,3.90
2023-05-06T06:47:17.516Z,3.63
2023-05-06T06:48:19.165Z,3.33
2023-05-06T06:49:20.940Z,2.73
2023-05-06T06:50:22.811Z,3.17
2023-05-06T06:51:24.950Z,3.07
2023-05-06T06:52:26.875Z,3.60
2023-05-06T06:53:28.472Z,3.07
2023-05-06T06:54:29.982Z,3.00
2023-05-06T06:55:31.522Z,3.00
2023-05-06T06:56:33.034Z,2.70
2023-05-06T06:57:34.743Z,2.80
2023-05-06T06:58:36.350Z,3.00
2023-05-06T06:59:37.886Z,2.43
2023-05-06T07:00:39.414Z,2.63
2023-05-06T07:01:42.070Z,2.20
2023-05-06T07:02:43.914Z,2.47
2023-05-06T07:03:45.549Z,3.20
2023-05-06T07:04:47.427Z,2.90
2023-05-06T07:05:49.144Z,2.43
2023-05-06T07:06:50.592Z,1.80
2023-05-06T07:07:52.062Z,2.13
2023-05-06T07:08:53.595Z,1.93
2023-05-06T07:09:56.883Z,2.20
2023-05-06T07:10:58.577Z,1.87
2023-05-06T07:12:01.135Z,2.53
2023-05-06T07:13:02.955Z,2.20
2023-05-06T07:14:04.960Z,2.37
2023-05-06T07:15:07.215Z,2.10
2023-05-06T07:16:08.821Z,2.13
2023-05-06T07:17:10.662Z,1.87
2023-05-06T07:18:12.348Z,1.80
2023-05-06T07:19:14.207Z,1.73
2023-05-06T07:20:16.330Z,2.00
2023-05-06T07:21:18.016Z,2.00
2023-05-06T07:22:19.544Z,2.03
2023-05-06T07:23:21.146Z,2.10
2023-05-06T07:24:22.730Z,1.80
2023-05-06T07:25:28.017Z,1.70
2023-05-06T07:26:29.589Z,2.07
2023-05-06T07:27:31.213Z,1.73
2023-05-06T07:28:32.733Z,2.03
2023-05-06T07:29:36.685Z,1.80
2023-05-06T07:30:38.870Z,1.57
2023-05-06T07:31:40.413Z,1.80
2023-05-06T07:32:42.723Z,1.83
2023-05-06T07:33:44.641Z,1.23
2023-05-06T07:34:46.273Z,1.83
2023-05-06T07:35:47.794Z,1.50
2023-05-06T07:36:50.711Z,1.67
2023-05-06T07:37:52.665Z,1.30
2023-05-06T07:38:54.174Z,1.43
2023-05-06T07:39:58.639Z,1.40
2023-05-06T07:41:00.308Z,1.30
2023-05-06T07:42:01.966Z,1.40
2023-05-06T07:43:03.725Z,1.27
2023-05-06T07:44:06.298Z,1.07
2023-05-06T07:45:08.214Z,1.13
2023-05-06T07:46:11.264Z,1.33
2023-05-06T07:47:17.172Z,1.57
2023-05-06T07:48:20.147Z,1.80
2023-05-06T07:49:21.940Z,1.10
2023-05-06T07:50:23.493Z,1.13
2023-05-06T07:51:26.189Z,0.70
2023-05-06T07:52:28.091Z,0.90
2023-05-06T07:53:29.595Z,0.90
2023-05-06T07:54:31.793Z,1.10
2023-05-06T07:55:35.062Z,1.50
2023-05-06T07:56:37.070Z,1.27
2023-05-06T07:57:38.723Z,1.30
2023-05-06T07:58:40.254Z,1.50
2023-05-06T07:59:47.483Z,0.83
2023-05-06T08:00:55.250Z,1.27
2023-05-06T08:01:58.388Z,1.37
2023-05-06T08:03:00.344Z,1.20
2023-05-06T08:04:02.181Z,1.30
2023-05-06T08:05:04.678Z,1.20
2023-05-06T08:06:06.980Z,1.33
2023-05-06T08:07:08.963Z,0.90
2023-05-06T08:08:11.076Z,1.20
2023-05-06T08:09:19.758Z,1.13
2023-05-06T08:10:25.009Z,1.00
2023-05-06T08:11:27.167Z,0.87
2023-05-06T08:12:29.076Z,1.60
2023-05-06T08:13:31.680Z,1.20
2023-05-06T08:14:33.204Z,0.97
2023-05-06T08:15:35.086Z,1.33
2023-05-06T08:16:36.895Z,0.90
2023-05-06T08:17:38.585Z,1.00
2023-05-06T08:18:40.060Z,1.10
2023-05-06T08:19:41.608Z,0.70
2023-05-06T08:20:43.164Z,0.80
2023-05-06T08:21:44.786Z,1.00
2023-05-06T08:22:46.271Z,0.70
2023-05-06T08:23:47.851Z,1.00
2023-05-06T08:24:49.411Z,1.10
2023-05-06T08:25:51.037Z,0.73
2023-05-06T08:26:52.826Z,0.70
2023-05-06T08:27:54.316Z,0.97
2023-05-06T08:28:57.659Z,1.00
2023-05-06T08:29:59.636Z,0.67
2023-05-06T08:31:01.285Z,1.17
2023-05-06T08:32:03.525Z,0.90
2023-05-06T08:33:05.449Z,1.00
2023-05-06T08:34:07.316Z,0.80
2023-05-06T08:35:09.305Z,0.93
2023-05-06T08:36:10.947Z,1.10
2023-05-06T08:37:12.598Z,0.80
2023-05-06T08:38:14.619Z,0.80
2023-05-06T08:39:16.444Z,0.90
2023-05-06T08:40:22.202Z,0.50
2023-05-06T08:41:24.467Z,0.90
2023-05-06T08:42:28.058Z,0.57
2023-05-06T08:43:32.136Z,0.90
2023-05-06T08:44:33.750Z,1.10
2023-05-06T08:45:35.328Z,0.80
2023-05-06T08:46:37.152Z,0.97
2023-05-06T08:47:38.913Z,0.93
2023-05-06T08:48:41.334Z,1.00
2023-05-06T08:49:42.773Z,0.90
2023-05-06T08:50:44.326Z,0.80
2023-05-06T08:51:46.620Z,1.00
2023-05-06T08:52:49.683Z,0.93
2023-05-06T08:53:51.968Z,1.07
2023-05-06T08:54:56.990Z,1.17
2023-05-06T08:56:01.044Z,1.30
2023-05-06T08:57:04.832Z,0.90
2023-05-06T08:58:07.058Z,1.00
2023-05-06T08:59:09.612Z,1.17
2023-05-06T09:00:11.428Z,1.23
2023-05-06T09:01:14.032Z,1.10
2023-05-06T09:02:15.673Z,1.10
2023-05-06T09:03:21.634Z,0.80
2023-05-06T09:04:23.752Z,1.00
2023-05-06T09:05:27.977Z,0.60
2023-05-06T09:06:29.975Z,0.83
2023-05-06T09:07:31.949Z,0.70
2023-05-06T09:08:33.460Z,0.90
2023-05-06T09:09:35.563Z,0.80
2023-05-06T09:10:46.520Z,1.20
2023-05-06T09:11:53.868Z,1.23
2023-05-06T09:12:56.730Z,1.23
2023-05-06T09:14:09.991Z,1.20
2023-05-06T09:15:12.349Z,1.50
2023-05-06T09:16:30.206Z,1.30
2023-05-06T09:17:32.700Z,1.60
2023-05-06T09:18:36.307Z,0.97
2023-05-06T09:19:38.054Z,1.13
2023-05-06T09:20:43.126Z,0.63
2023-05-06T09:21:46.065Z,1.07
2023-05-06T09:22:49.128Z,1.73
2023-05-06T09:23:51.183Z,1.63
2023-05-06T09:24:57.186Z,1.03
2023-05-06T09:25:59.575Z,1.30
2023-05-06T09:27:01.623Z,1.20
2023-05-06T09:28:07.469Z,1.03
2023-05-06T09:29:09.254Z,0.90
2023-05-06T09:30:14.393Z,1.10
2023-05-06T09:31:16.109Z,1.03
2023-05-06T09:32:17.738Z,1.00
2023-05-06T09:33:20.338Z,0.90
2023-05-06T09:34:22.772Z,0.63
2023-05-06T09:35:31.428Z,0.70
2023-05-06T09:36:33.766Z,0.80
2023-05-06T09:37:35.511Z,0.93
2023-05-06T09:38:37.832Z,1.00
2023-05-06T09:39:39.276Z,1.00
2023-05-06T09:40:40.849Z,0.73
2023-05-06T09:41:42.526Z,0.80
2023-05-06T09:42:44.013Z,0.90
2023-05-06T09:43:46.258Z,1.17
2023-05-06T09:44:47.913Z,1.02
2023-05-06T09:45:49.451Z,1.05
2023-05-06T09:46:51.165Z,1.10
2023-05-06T09:47:53.969Z,1.00
2023-05-06T09:48:57.176Z,0.80
2023-05-06T09:50:01.482Z,0.73
2023-05-06T09:51:04.285Z,1.10
2023-05-06T09:52:07.007Z,0.60
2023-05-06T09:53:08.911Z,0.80
2023-05-06T09:54:10.578Z,0.97
2023-05-06T09:55:12.446Z,0.90
2023-05-06T09:56:14.781Z,0.73
2023-05-06T09:57:19.969Z,0.75
2023-05-06T09:58:22.335Z,0.85
2023-05-06T09:59:29.290Z,1.00
2023-05-06T10:00:31.710Z,0.80
2023-05-06T10:01:37.190Z,1.00
2023-05-06T10:02:42.639Z,1.10
2023-05-06T10:03:47.030Z,1.27
2023-05-06T10:04:50.360Z,0.87
2023-05-06T10:05:53.410Z,0.87
2023-05-06T10:07:00.162Z,0.93
2023-05-06T10:08:02.501Z,0.70
2023-05-06T10:09:06.557Z,0.90
2023-05-06T10:10:11.767Z,1.20
2023-05-06T10:11:14.836Z,0.73
2023-05-06T10:12:16.515Z,1.10
2023-05-06T10:13:19.524Z,0.80
2023-05-06T10:14:21.194Z,0.70
2023-05-06T10:15:23.892Z,0.90
2023-05-06T10:16:25.684Z,1.10
2023-05-06T10:17:28.893Z,0.68
2023-05-06T10:18:31.052Z,0.82
2023-05-06T10:19:33.592Z,0.95
2023-05-06T10:20:36.100Z,0.90
2023-05-06T10:21:40.208Z,0.70
2023-05-06T10:22:52.515Z,0.88
2023-05-06T10:24:04.192Z,0.70
2023-05-06T10:25:13.122Z,0.95
2023-05-06T10:26:16.834Z,0.70
2023-05-06T10:27:20.668Z,0.77
2023-05-06T10:28:29.564Z,0.80
2023-05-06T10:29:35.531Z,1.40
2023-05-06T10:30:39.408Z,0.98
2023-05-06T10:31:46.462Z,0.80
2023-05-06T10:32:48.853Z,0.80
2023-05-06T10:33:52.118Z,0.90
2023-05-06T10:34:55.581Z,0.70
2023-05-06T10:36:01.818Z,0.82
2023-05-06T10:37:05.845Z,0.90
2023-05-06T10:38:12.557Z,0.88
2023-05-06T10:39:14.809Z,0.80
2023-05-06T10:40:16.630Z,1.00
2023-05-06T10:41:19.884Z,0.85
2023-05-06T10:42:29.839Z,1.10
2023-05-06T10:43:32.510Z,0.80
2023-05-06T10:45:00.787Z,0.90
2023-05-06T10:46:02.622Z,1.17
2023-05-06T10:47:05.679Z,0.93
2023-05-06T10:48:08.932Z,1.10
2023-05-06T10:49:11.560Z,0.80
2023-05-06T10:50:20.895Z,0.80
2023-05-06T10:51:23.885Z,0.80
2023-05-06T10:52:26.276Z,1.00
2023-05-06T10:53:48.012Z,1.15
2023-05-06T10:54:50.903Z,1.20
2023-05-06T10:56:07.136Z,0.93
2023-05-06T10:57:09.836Z,1.23
2023-05-06T10:58:11.347Z,0.77
2023-05-06T10:59:13.381Z,1.13
2023-05-06T11:00:15.363Z,1.48
2023-05-06T11:01:21.168Z,1.00
2023-05-06T11:02:24.394Z,1.10
2023-05-06T11:03:26.559Z,0.80
2023-05-06T11:04:31.440Z,0.90
2023-05-06T11:05:46.059Z,1.50
2023-05-06T11:06:51.599Z,1.10
2023-05-06T11:08:06.419Z,1.07
2023-05-06T11:09:28.782Z,1.13
2023-05-06T11:10:34.282Z,1.30
2023-05-06T11:12:02.264Z,1.17
2023-05-06T11:13:28.045Z,1.13
2023-05-06T11:14:31.950Z,1.20
2023-05-06T11:15:36.826Z,1.30
2023-05-06T11:16:57.583Z,1.00
2023-05-06T11:17:59.511Z,1.10
2023-05-06T11:19:01.104Z,1.30
2023-05-06T11:20:18.868Z,1.27
2023-05-06T11:21:20.631Z,1.60
2023-05-06T11:22:38.527Z,0.80
2023-05-06T11:23:42.871Z,1.23
2023-05-06T11:24:44.560Z,0.90
2023-05-06T11:25:47.412Z,1.08
2023-05-06T11:27:01.458Z,1.00
2023-05-06T11:28:07.007Z,0.77
2023-05-06T11:29:12.289Z,1.20
2023-05-06T11:30:15.177Z,0.90
2023-05-06T11:31:17.262Z,1.00
2023-05-06T11:32:22.903Z,0.98
2023-05-06T11:33:26.949Z,0.98
2023-05-06T11:34:29.791Z,0.80
2023-05-06T11:35:37.951Z,1.00
2023-05-06T11:36:46.994Z,0.82
2023-05-06T11:37:49.012Z,0.88
2023-05-06T11:38:52.370Z,0.88
2023-05-06T11:39:54.232Z,1.23
2023-05-06T11:40:55.665Z,1.13
2023-05-06T11:42:02.372Z,1.00
2023-05-06T11:43:17.120Z,0.88
2023-05-06T11:44:26.043Z,1.00
2023-05-06T11:45:39.719Z,0.73
2023-05-06T11:46:43.667Z,0.93
2023-05-06T11:47:46.069Z,0.93
2023-05-06T11:48:47.830Z,0.80
2023-05-06T11:49:53.871Z,1.05
2023-05-06T11:50:55.729Z,0.98
2023-05-06T11:51:57.322Z,1.33
2023-05-06T11:52:58.856Z,1.83
2023-05-06T11:54:05.811Z,0.90
2023-05-06T11:55:09.937Z,1.45
2023-05-06T11:56:12.609Z,1.20
2023-05-06T11:57:14.252Z,1.30
2023-05-06T11:58:16.844Z,1.60
2023-05-06T11:59:25.704Z,1.40
2023-05-06T12:00:27.386Z,0.85
2023-05-06T12:01:30.116Z,0.90
2023-05-06T12:02:31.689Z,1.55
2023-05-06T12:03:33.642Z,1.40
2023-05-06T12:04:41.643Z,2.03
2023-05-06T12:05:43.877Z,2.30
2023-05-06T12:06:46.531Z,1.40
2023-05-06T12:07:48.214Z,1.77
2023-05-06T12:08:50.671Z,1.15
2023-05-06T12:09:52.699Z,1.10
2023-05-06T12:10:55.059Z,0.73
2023-05-06T12:11:57.134Z,0.98
2023-05-06T12:12:58.884Z,1.15
2023-05-06T12:14:01.664Z,1.08
2023-05-06T12:15:03.996Z,0.80
2023-05-06T12:16:05.965Z,1.10
2023-05-06T12:17:07.995Z,0.80
2023-05-06T12:18:10.184Z,0.57
2023-05-06T12:19:11.874Z,1.00
2023-05-06T12:20:13.544Z,0.82
2023-05-06T12:21:21.800Z,1.17
2023-05-06T12:22:27.128Z,0.82
2023-05-06T12:23:28.885Z,0.77
2023-05-06T12:24:31.022Z,1.00
2023-05-06T12:25:32.908Z,1.00
2023-05-06T12:26:45.801Z,0.82
2023-05-06T12:27:47.553Z,0.95
2023-05-06T12:29:04.340Z,0.90
2023-05-06T12:30:10.882Z,1.13
2023-05-06T12:31:26.527Z,1.13
2023-05-06T12:32:28.090Z,1.17
2023-05-06T12:33:44.262Z,0.90
2023-05-06T12:34:45.916Z,0.95
2023-05-06T12:35:47.985Z,0.90
2023-05-06T12:36:49.888Z,0.77
2023-05-06T12:37:51.419Z,1.27
2023-05-06T12:38:58.163Z,0.80
2023-05-06T12:40:00.340Z,0.77
2023-05-06T12:41:01.925Z,0.70
2023-05-06T12:42:03.915Z,0.75
2023-05-06T12:43:05.520Z,0.90
2023-05-06T12:44:26.238Z,1.00
2023-05-06T12:45:28.006Z,1.02
2023-05-06T12:46:31.616Z,1.00
2023-05-06T12:47:33.296Z,1.08
2023-05-06T12:48:35.708Z,1.20
2023-05-06T12:49:45.877Z,0.90
2023-05-06T12:50:47.941Z,0.98
2023-05-06T12:52:05.376Z,0.90
2023-05-06T12:53:09.197Z,1.00
2023-05-06T12:54:29.494Z,0.85
2023-05-06T12:55:34.676Z,0.90
2023-05-06T12:56:36.320Z,1.00
2023-05-06T12:57:37.799Z,0.90
2023-05-06T12:58:40.085Z,1.00
2023-05-06T12:59:43.222Z,1.03
2023-05-06T13:00:45.291Z,1.23
2023-05-06T13:01:47.178Z,1.03
2023-05-06T13:02:48.814Z,1.10
2023-05-06T13:03:50.972Z,0.90
2023-05-06T13:04:52.882Z,1.10
2023-05-06T13:05:54.442Z,0.90
2023-05-06T13:06:57.104Z,0.80
2023-05-06T13:07:58.650Z,0.80
2023-05-06T13:09:00.402Z,1.10
2023-05-06T13:10:03.790Z,0.90
2023-05-06T13:11:05.432Z,0.87
2023-05-06T13:12:07.327Z,0.97
2023-05-06T13:13:09.297Z,2.07
2023-05-06T13:14:11.348Z,1.23
2023-05-06T13:15:12.867Z,1.17
2023-05-06T13:16:14.584Z,0.90
2023-05-06T13:17:16.567Z,1.23
2023-05-06T13:18:18.272Z,0.90
2023-05-06T13:19:31.579Z,0.90
2023-05-06T13:20:35.157Z,1.00
2023-05-06T13:21:40.214Z,1.10
2023-05-06T13:22:53.872Z,0.80
2023-05-06T13:23:56.652Z,1.50
2023-05-06T13:24:58.764Z,1.33
2023-05-06T13:26:05.420Z,0.77
2023-05-06T13:27:07.583Z,1.13
2023-05-06T13:28:09.832Z,1.00
2023-05-06T13:29:11.778Z,0.90
2023-05-06T13:30:13.776Z,1.03
2023-05-06T13:31:16.031Z,0.87
2023-05-06T13:32:18.128Z,0.70
2023-05-06T13:33:19.967Z,0.80
2023-05-06T13:34:21.960Z,1.30
2023-05-06T13:35:23.717Z,1.23
2023-05-06T13:36:25.339Z,1.00
2023-05-06T13:37:26.907Z,0.80
2023-05-06T13:38:28.740Z,0.80
2023-05-06T13:39:31.745Z,0.93
2023-05-06T13:40:34.231Z,0.80
2023-05-06T13:41:36.119Z,1.07
2023-05-06T13:42:39.061Z,0.80
2023-05-06T13:43:41.193Z,0.70
2023-05-06T13:44:42.892Z,0.83
2023-05-06T13:45:45.060Z,1.00
2023-05-06T13:46:46.793Z,1.13
2023-05-06T13:47:48.498Z,1.03
2023-05-06T13:48:50.338Z,0.60
2023-05-06T13:49:52.451Z,1.30
2023-05-06T13:50:54.819Z,0.90
2023-05-06T13:51:57.400Z,0.80
2023-05-06T13:52:59.022Z,1.63